sensor_id;sensor_type;location;lat;lon;timestamp;P1;durP1;ratioP1;P2;durP2;ratioP2
32838;SDS011;19182;41.820;12.808;2023-03-01T00:01:06;9.18;;;5.25;;
32838;SDS011;19182;41.820;12.808;2023-03-01T00:03:33;12.40;;;5.40;;
32838;SDS011;19182;41.820;12.808;2023-03-01T00:06:00;7.25;;;4.95;;
32838;SDS011;19182;41.820;12.808;2023-03-01T00:08:27;8.25;;;5.70;;
32838;SDS011;19182;41.820;12.808;2023-03-01T00:13:30;10.02;;;5.65;;
32838;SDS011;19182;41.820;12.808;2023-03-01T00:15:57;12.18;;;5.70;;
32838;SDS011;19182;41.820;12.808;2023-03-01T00:18:26;9.88;;;5.85;;
32838;SDS011;19182;41.820;12.808;2023-03-01T00:20:52;7.90;;;5.78;;
32838;SDS011;19182;41.820;12.808;2023-03-01T00:23:19;11.18;;;5.32;;
32838;SDS011;19182;41.820;12.808;2023-03-01T00:25:45;7.88;;;5.00;;
32838;SDS011;19182;41.820;12.808;2023-03-01T00:28:10;8.05;;;5.53;;
32838;SDS011;19182;41.820;12.808;2023-03-01T00:30:36;8.93;;;4.88;;
32838;SDS011;19182;41.820;12.808;2023-03-01T00:33:02;7.88;;;5.45;;
32838;SDS011;19182;41.820;12.808;2023-03-01T00:35:28;6.00;;;4.35;;
32838;SDS011;19182;41.820;12.808;2023-03-01T00:37:53;7.28;;;4.43;;
32838;SDS011;19182;41.820;12.808;2023-03-01T00:40:29;5.77;;;4.27;;
32838;SDS011;19182;41.820;12.808;2023-03-01T00:42:56;8.20;;;4.63;;
32838;SDS011;19182;41.820;12.808;2023-03-01T00:45:23;6.68;;;4.72;;
32838;SDS011;19182;41.820;12.808;2023-03-01T00:47:49;6.38;;;5.10;;
32838;SDS011;19182;41.820;12.808;2023-03-01T00:50:16;11.60;;;4.82;;
32838;SDS011;19182;41.820;12.808;2023-03-01T00:52:42;9.00;;;5.55;;
32838;SDS011;19182;41.820;12.808;2023-03-01T00:55:11;8.90;;;4.90;;
32838;SDS011;19182;41.820;12.808;2023-03-01T00:57:37;11.10;;;5.13;;
32838;SDS011;19182;41.820;12.808;2023-03-01T01:00:04;9.82;;;4.75;;
32838;SDS011;19182;41.820;12.808;2023-03-01T01:02:34;6.88;;;4.68;;
32838;SDS011;19182;41.820;12.808;2023-03-01T01:05:00;7.13;;;3.77;;
32838;SDS011;19182;41.820;12.808;2023-03-01T01:07:26;5.60;;;3.53;;
32838;SDS011;19182;41.820;12.808;2023-03-01T01:09:52;5.10;;;3.70;;
32838;SDS011;19182;41.820;12.808;2023-03-01T01:12:17;4.35;;;3.30;;
32838;SDS011;19182;41.820;12.808;2023-03-01T01:14:43;2.30;;;1.98;;
32838;SDS011;19182;41.820;12.808;2023-03-01T01:17:09;2.85;;;1.70;;
32838;SDS011;19182;41.820;12.808;2023-03-01T01:19:35;1.42;;;1.05;;
32838;SDS011;19182;41.820;12.808;2023-03-01T01:22:01;2.30;;;1.30;;
32838;SDS011;19182;41.820;12.808;2023-03-01T01:24:27;2.10;;;1.30;;
32838;SDS011;19182;41.820;12.808;2023-03-01T01:26:56;0.80;;;0.80;;
32838;SDS011;19182;41.820;12.808;2023-03-01T01:29:21;1.05;;;0.95;;
32838;SDS011;19182;41.820;12.808;2023-03-01T01:31:48;2.05;;;1.05;;
32838;SDS011;19182;41.820;12.808;2023-03-01T01:34:18;3.78;;;1.20;;
32838;SDS011;19182;41.820;12.808;2023-03-01T01:36:47;1.17;;;1.00;;
32838;SDS011;19182;41.820;12.808;2023-03-01T01:41:42;1.30;;;1.20;;
32838;SDS011;19182;41.820;12.808;2023-03-01T01:44:15;1.48;;;1.38;;
32838;SDS011;19182;41.820;12.808;2023-03-01T01:46:50;4.70;;;1.98;;
32838;SDS011;19182;41.820;12.808;2023-03-01T01:51:56;2.83;;;1.50;;
32838;SDS011;19182;41.820;12.808;2023-03-01T01:54:52;2.03;;;1.80;;
32838;SDS011;19182;41.820;12.808;2023-03-01T01:57:26;3.55;;;2.35;;
32838;SDS011;19182;41.820;12.808;2023-03-01T02:00:04;3.85;;;3.20;;
32838;SDS011;19182;41.820;12.808;2023-03-01T02:02:41;4.57;;;3.92;;
32838;SDS011;19182;41.820;12.808;2023-03-01T02:05:24;8.07;;;5.20;;
32838;SDS011;19182;41.820;12.808;2023-03-01T02:08:15;6.70;;;5.57;;
32838;SDS011;19182;41.820;12.808;2023-03-01T02:10:44;6.75;;;5.07;;
32838;SDS011;19182;41.820;12.808;2023-03-01T02:13:11;5.05;;;4.50;;
32838;SDS011;19182;41.820;12.808;2023-03-01T02:15:38;6.82;;;4.90;;
32838;SDS011;19182;41.820;12.808;2023-03-01T02:18:05;7.43;;;4.90;;
32838;SDS011;19182;41.820;12.808;2023-03-01T02:20:40;6.75;;;4.60;;
32838;SDS011;19182;41.820;12.808;2023-03-01T02:23:13;8.37;;;5.37;;
32838;SDS011;19182;41.820;12.808;2023-03-01T02:25:44;8.07;;;4.75;;
32838;SDS011;19182;41.820;12.808;2023-03-01T02:31:07;7.43;;;4.05;;
32838;SDS011;19182;41.820;12.808;2023-03-01T02:33:52;4.80;;;3.50;;
32838;SDS011;19182;41.820;12.808;2023-03-01T02:36:26;4.18;;;3.20;;
32838;SDS011;19182;41.820;12.808;2023-03-01T02:38:57;4.13;;;3.05;;
32838;SDS011;19182;41.820;12.808;2023-03-01T02:41:28;4.63;;;3.08;;
32838;SDS011;19182;41.820;12.808;2023-03-01T02:43:57;5.57;;;2.85;;
32838;SDS011;19182;41.820;12.808;2023-03-01T02:46:24;4.18;;;2.70;;
32838;SDS011;19182;41.820;12.808;2023-03-01T02:48:51;2.92;;;2.10;;
32838;SDS011;19182;41.820;12.808;2023-03-01T02:51:25;2.38;;;2.00;;
32838;SDS011;19182;41.820;12.808;2023-03-01T02:57:11;2.67;;;1.60;;
32838;SDS011;19182;41.820;12.808;2023-03-01T02:59:37;2.22;;;1.60;;
32838;SDS011;19182;41.820;12.808;2023-03-01T03:02:17;1.20;;;1.00;;
32838;SDS011;19182;41.820;12.808;2023-03-01T03:05:14;1.48;;;1.00;;
32838;SDS011;19182;41.820;12.808;2023-03-01T03:07:42;2.45;;;1.08;;
32838;SDS011;19182;41.820;12.808;2023-03-01T03:10:13;2.63;;;0.93;;
32838;SDS011;19182;41.820;12.808;2023-03-01T03:12:40;1.55;;;0.98;;
32838;SDS011;19182;41.820;12.808;2023-03-01T03:15:09;0.93;;;0.85;;
32838;SDS011;19182;41.820;12.808;2023-03-01T03:20:06;1.23;;;1.13;;
32838;SDS011;19182;41.820;12.808;2023-03-01T03:22:39;3.15;;;1.02;;
32838;SDS011;19182;41.820;12.808;2023-03-01T03:25:06;0.75;;;0.75;;
32838;SDS011;19182;41.820;12.808;2023-03-01T03:30:09;1.42;;;0.98;;
32838;SDS011;19182;41.820;12.808;2023-03-01T03:32:41;1.02;;;0.95;;
32838;SDS011;19182;41.820;12.808;2023-03-01T03:35:17;1.10;;;1.00;;
32838;SDS011;19182;41.820;12.808;2023-03-01T03:37:55;2.88;;;1.10;;
32838;SDS011;19182;41.820;12.808;2023-03-01T03:40:29;1.63;;;1.25;;
32838;SDS011;19182;41.820;12.808;2023-03-01T03:43:02;2.40;;;1.27;;
32838;SDS011;19182;41.820;12.808;2023-03-01T03:45:32;2.05;;;1.23;;
32838;SDS011;19182;41.820;12.808;2023-03-01T03:48:01;2.15;;;0.95;;
32838;SDS011;19182;41.820;12.808;2023-03-01T03:50:29;1.75;;;1.10;;
32838;SDS011;19182;41.820;12.808;2023-03-01T03:52:55;1.05;;;0.88;;
32838;SDS011;19182;41.820;12.808;2023-03-01T03:55:21;0.75;;;0.73;;
32838;SDS011;19182;41.820;12.808;2023-03-01T03:57:56;2.13;;;0.70;;
32838;SDS011;19182;41.820;12.808;2023-03-01T04:00:26;1.08;;;0.73;;
32838;SDS011;19182;41.820;12.808;2023-03-01T04:02:56;1.70;;;0.80;;
32838;SDS011;19182;41.820;12.808;2023-03-01T04:05:22;0.95;;;0.63;;
32838;SDS011;19182;41.820;12.808;2023-03-01T04:07:48;0.90;;;0.80;;
32838;SDS011;19182;41.820;12.808;2023-03-01T04:10:15;0.75;;;0.75;;
32838;SDS011;19182;41.820;12.808;2023-03-01T04:15:10;0.80;;;0.80;;
32838;SDS011;19182;41.820;12.808;2023-03-01T04:17:40;0.73;;;0.73;;
32838;SDS011;19182;41.820;12.808;2023-03-01T04:20:08;0.82;;;0.60;;
32838;SDS011;19182;41.820;12.808;2023-03-01T04:22:39;1.00;;;0.60;;
32838;SDS011;19182;41.820;12.808;2023-03-01T04:25:05;1.38;;;0.93;;
32838;SDS011;19182;41.820;12.808;2023-03-01T04:27:33;2.88;;;1.17;;
32838;SDS011;19182;41.820;12.808;2023-03-01T04:30:00;2.55;;;1.23;;
32838;SDS011;19182;41.820;12.808;2023-03-01T04:32:29;1.55;;;1.20;;
32838;SDS011;19182;41.820;12.808;2023-03-01T04:34:56;1.45;;;1.25;;
32838;SDS011;19182;41.820;12.808;2023-03-01T04:37:21;5.72;;;1.65;;
32838;SDS011;19182;41.820;12.808;2023-03-01T04:39:49;3.50;;;1.35;;
32838;SDS011;19182;41.820;12.808;2023-03-01T04:42:15;2.50;;;1.38;;
32838;SDS011;19182;41.820;12.808;2023-03-01T04:44:41;1.60;;;1.50;;
32838;SDS011;19182;41.820;12.808;2023-03-01T04:47:07;2.30;;;1.50;;
32838;SDS011;19182;41.820;12.808;2023-03-01T04:49:33;2.70;;;1.42;;
32838;SDS011;19182;41.820;12.808;2023-03-01T04:51:59;2.40;;;1.40;;
32838;SDS011;19182;41.820;12.808;2023-03-01T04:56:59;1.58;;;1.42;;
32838;SDS011;19182;41.820;12.808;2023-03-01T04:59:26;2.65;;;1.50;;
32838;SDS011;19182;41.820;12.808;2023-03-01T05:01:52;3.03;;;1.48;;
32838;SDS011;19182;41.820;12.808;2023-03-01T05:04:22;1.90;;;1.60;;
32838;SDS011;19182;41.820;12.808;2023-03-01T05:06:48;4.10;;;1.70;;
32838;SDS011;19182;41.820;12.808;2023-03-01T05:09:15;1.75;;;1.30;;
32838;SDS011;19182;41.820;12.808;2023-03-01T05:11:42;2.80;;;1.80;;
32838;SDS011;19182;41.820;12.808;2023-03-01T05:14:08;1.48;;;1.30;;
32838;SDS011;19182;41.820;12.808;2023-03-01T05:16:36;2.50;;;1.70;;
32838;SDS011;19182;41.820;12.808;2023-03-01T05:19:03;2.67;;;1.13;;
32838;SDS011;19182;41.820;12.808;2023-03-01T05:21:40;2.63;;;1.30;;
32838;SDS011;19182;41.820;12.808;2023-03-01T05:24:25;3.00;;;1.60;;
32838;SDS011;19182;41.820;12.808;2023-03-01T05:26:51;3.92;;;1.60;;
32838;SDS011;19182;41.820;12.808;2023-03-01T05:29:19;1.80;;;1.40;;
32838;SDS011;19182;41.820;12.808;2023-03-01T05:31:52;3.05;;;1.60;;
32838;SDS011;19182;41.820;12.808;2023-03-01T05:34:25;2.20;;;1.40;;
32838;SDS011;19182;41.820;12.808;2023-03-01T05:36:58;2.53;;;1.52;;
32838;SDS011;19182;41.820;12.808;2023-03-01T05:39:26;2.47;;;1.42;;
32838;SDS011;19182;41.820;12.808;2023-03-01T05:41:53;5.90;;;1.42;;
32838;SDS011;19182;41.820;12.808;2023-03-01T05:44:20;3.13;;;1.58;;
32838;SDS011;19182;41.820;12.808;2023-03-01T05:46:46;6.88;;;1.65;;
32838;SDS011;19182;41.820;12.808;2023-03-01T05:49:13;3.60;;;1.50;;
32838;SDS011;19182;41.820;12.808;2023-03-01T05:51:39;1.73;;;1.42;;
32838;SDS011;19182;41.820;12.808;2023-03-01T05:54:09;4.07;;;1.73;;
32838;SDS011;19182;41.820;12.808;2023-03-01T05:56:35;1.48;;;1.20;;
32838;SDS011;19182;41.820;12.808;2023-03-01T05:59:02;2.08;;;1.10;;
32838;SDS011;19182;41.820;12.808;2023-03-01T06:01:34;0.80;;;0.80;;
32838;SDS011;19182;41.820;12.808;2023-03-01T06:04:01;2.55;;;1.15;;
32838;SDS011;19182;41.820;12.808;2023-03-01T06:06:27;2.65;;;1.10;;
32838;SDS011;19182;41.820;12.808;2023-03-01T06:08:54;1.35;;;1.13;;
32838;SDS011;19182;41.820;12.808;2023-03-01T06:11:20;3.88;;;1.10;;
32838;SDS011;19182;41.820;12.808;2023-03-01T06:13:48;0.70;;;0.70;;
32838;SDS011;19182;41.820;12.808;2023-03-01T06:16:14;2.03;;;0.90;;
32838;SDS011;19182;41.820;12.808;2023-03-01T06:18:40;1.17;;;0.95;;
32838;SDS011;19182;41.820;12.808;2023-03-01T06:21:06;1.92;;;0.80;;
32838;SDS011;19182;41.820;12.808;2023-03-01T06:23:33;0.98;;;0.90;;
32838;SDS011;19182;41.820;12.808;2023-03-01T06:26:04;1.27;;;0.95;;
32838;SDS011;19182;41.820;12.808;2023-03-01T06:28:31;1.27;;;0.93;;
32838;SDS011;19182;41.820;12.808;2023-03-01T06:30:58;1.13;;;1.00;;
32838;SDS011;19182;41.820;12.808;2023-03-01T06:33:24;1.23;;;0.90;;
32838;SDS011;19182;41.820;12.808;2023-03-01T06:35:51;1.05;;;0.80;;
32838;SDS011;19182;41.820;12.808;2023-03-01T06:38:19;1.05;;;0.93;;
32838;SDS011;19182;41.820;12.808;2023-03-01T06:40:45;2.08;;;1.20;;
32838;SDS011;19182;41.820;12.808;2023-03-01T06:43:18;2.17;;;1.45;;
32838;SDS011;19182;41.820;12.808;2023-03-01T06:45:45;2.72;;;1.42;;
32838;SDS011;19182;41.820;12.808;2023-03-01T06:48:10;1.20;;;0.90;;
32838;SDS011;19182;41.820;12.808;2023-03-01T06:50:37;0.98;;;0.98;;
32838;SDS011;19182;41.820;12.808;2023-03-01T06:53:03;0.90;;;0.90;;
32838;SDS011;19182;41.820;12.808;2023-03-01T06:55:29;1.95;;;0.80;;
32838;SDS011;19182;41.820;12.808;2023-03-01T06:57:55;0.90;;;0.90;;
32838;SDS011;19182;41.820;12.808;2023-03-01T07:00:22;1.10;;;0.98;;
32838;SDS011;19182;41.820;12.808;2023-03-01T07:02:48;1.23;;;0.93;;
32838;SDS011;19182;41.820;12.808;2023-03-01T07:05:14;3.70;;;1.17;;
32838;SDS011;19182;41.820;12.808;2023-03-01T07:07:40;1.13;;;1.02;;
32838;SDS011;19182;41.820;12.808;2023-03-01T07:10:05;1.67;;;1.48;;
32838;SDS011;19182;41.820;12.808;2023-03-01T07:12:35;2.55;;;0.90;;
32838;SDS011;19182;41.820;12.808;2023-03-01T07:15:00;2.05;;;1.30;;
32838;SDS011;19182;41.820;12.808;2023-03-01T07:17:26;1.33;;;1.13;;
32838;SDS011;19182;41.820;12.808;2023-03-01T07:19:51;1.00;;;0.90;;
32838;SDS011;19182;41.820;12.808;2023-03-01T07:22:17;3.50;;;0.80;;
32838;SDS011;19182;41.820;12.808;2023-03-01T07:24:43;1.08;;;0.95;;
32838;SDS011;19182;41.820;12.808;2023-03-01T07:27:09;0.93;;;0.90;;
32838;SDS011;19182;41.820;12.808;2023-03-01T07:29:35;0.80;;;0.80;;
32838;SDS011;19182;41.820;12.808;2023-03-01T07:32:04;0.90;;;0.90;;
32838;SDS011;19182;41.820;12.808;2023-03-01T07:34:32;2.63;;;1.05;;
32838;SDS011;19182;41.820;12.808;2023-03-01T07:36:57;1.33;;;1.02;;
32838;SDS011;19182;41.820;12.808;2023-03-01T07:39:23;1.23;;;1.10;;
32838;SDS011;19182;41.820;12.808;2023-03-01T07:41:49;2.75;;;1.90;;
32838;SDS011;19182;41.820;12.808;2023-03-01T07:44:15;1.23;;;1.00;;
32838;SDS011;19182;41.820;12.808;2023-03-01T07:46:42;1.63;;;1.17;;
32838;SDS011;19182;41.820;12.808;2023-03-01T07:49:08;1.23;;;1.13;;
32838;SDS011;19182;41.820;12.808;2023-03-01T07:51:34;1.67;;;1.00;;
32838;SDS011;19182;41.820;12.808;2023-03-01T07:54:02;0.98;;;0.85;;
32838;SDS011;19182;41.820;12.808;2023-03-01T07:56:28;1.27;;;1.17;;
32838;SDS011;19182;41.820;12.808;2023-03-01T07:58:54;1.15;;;1.05;;
32838;SDS011;19182;41.820;12.808;2023-03-01T08:01:20;1.90;;;1.15;;
32838;SDS011;19182;41.820;12.808;2023-03-01T08:03:47;1.45;;;1.35;;
32838;SDS011;19182;41.820;12.808;2023-03-01T08:06:14;1.13;;;1.02;;
32838;SDS011;19182;41.820;12.808;2023-03-01T08:08:41;1.35;;;1.10;;
32838;SDS011;19182;41.820;12.808;2023-03-01T08:11:09;3.67;;;1.98;;
32838;SDS011;19182;41.820;12.808;2023-03-01T08:13:36;1.20;;;1.10;;
32838;SDS011;19182;41.820;12.808;2023-03-01T08:16:06;1.65;;;1.27;;
32838;SDS011;19182;41.820;12.808;2023-03-01T08:18:35;4.95;;;1.20;;
32838;SDS011;19182;41.820;12.808;2023-03-01T08:21:10;1.27;;;1.08;;
32838;SDS011;19182;41.820;12.808;2023-03-01T08:23:38;1.35;;;1.20;;
32838;SDS011;19182;41.820;12.808;2023-03-01T08:26:13;2.58;;;1.20;;
32838;SDS011;19182;41.820;12.808;2023-03-01T08:28:43;2.53;;;0.90;;
32838;SDS011;19182;41.820;12.808;2023-03-01T08:33:51;1.42;;;1.25;;
32838;SDS011;19182;41.820;12.808;2023-03-01T08:36:26;3.00;;;1.48;;
32838;SDS011;19182;41.820;12.808;2023-03-01T08:38:57;1.30;;;1.20;;
32838;SDS011;19182;41.820;12.808;2023-03-01T08:41:23;1.25;;;0.98;;
32838;SDS011;19182;41.820;12.808;2023-03-01T08:43:49;3.22;;;2.30;;
32838;SDS011;19182;41.820;12.808;2023-03-01T08:46:15;1.95;;;1.75;;
32838;SDS011;19182;41.820;12.808;2023-03-01T08:48:41;1.67;;;1.23;;
32838;SDS011;19182;41.820;12.808;2023-03-01T08:51:13;1.42;;;1.30;;
32838;SDS011;19182;41.820;12.808;2023-03-01T08:53:42;1.48;;;1.38;;
32838;SDS011;19182;41.820;12.808;2023-03-01T08:56:09;2.03;;;1.60;;
32838;SDS011;19182;41.820;12.808;2023-03-01T08:58:35;2.00;;;1.70;;
32838;SDS011;19182;41.820;12.808;2023-03-01T09:01:08;3.85;;;2.25;;
32838;SDS011;19182;41.820;12.808;2023-03-01T09:03:35;1.60;;;1.50;;
32838;SDS011;19182;41.820;12.808;2023-03-01T09:06:01;1.88;;;1.50;;
32838;SDS011;19182;41.820;12.808;2023-03-01T09:08:28;5.22;;;2.10;;
32838;SDS011;19182;41.820;12.808;2023-03-01T09:10:54;3.58;;;2.40;;
32838;SDS011;19182;41.820;12.808;2023-03-01T09:13:20;1.92;;;1.70;;
32838;SDS011;19182;41.820;12.808;2023-03-01T09:15:50;2.22;;;1.55;;
32838;SDS011;19182;41.820;12.808;2023-03-01T09:18:16;2.25;;;1.60;;
32838;SDS011;19182;41.820;12.808;2023-03-01T09:20:42;2.65;;;1.52;;
32838;SDS011;19182;41.820;12.808;2023-03-01T09:23:09;1.98;;;1.73;;
32838;SDS011;19182;41.820;12.808;2023-03-01T09:25:34;5.15;;;1.80;;
32838;SDS011;19182;41.820;12.808;2023-03-01T09:28:01;3.03;;;1.70;;
32838;SDS011;19182;41.820;12.808;2023-03-01T09:30:26;4.53;;;1.83;;
32838;SDS011;19182;41.820;12.808;2023-03-01T09:32:52;4.90;;;2.47;;
32838;SDS011;19182;41.820;12.808;2023-03-01T09:35:18;3.33;;;2.15;;
32838;SDS011;19182;41.820;12.808;2023-03-01T09:37:45;3.03;;;2.30;;
32838;SDS011;19182;41.820;12.808;2023-03-01T09:40:15;3.03;;;1.83;;
32838;SDS011;19182;41.820;12.808;2023-03-01T09:45:55;3.80;;;2.08;;
32838;SDS011;19182;41.820;12.808;2023-03-01T09:48:28;6.15;;;2.33;;
32838;SDS011;19182;41.820;12.808;2023-03-01T09:51:02;3.00;;;1.70;;
32838;SDS011;19182;41.820;12.808;2023-03-01T09:53:34;3.85;;;2.10;;
32838;SDS011;19182;41.820;12.808;2023-03-01T09:59:15;5.97;;;2.17;;
32838;SDS011;19182;41.820;12.808;2023-03-01T10:02:03;2.60;;;2.10;;
32838;SDS011;19182;41.820;12.808;2023-03-01T10:05:04;2.03;;;1.83;;
32838;SDS011;19182;41.820;12.808;2023-03-01T10:07:53;2.35;;;1.85;;
32838;SDS011;19182;41.820;12.808;2023-03-01T10:10:37;2.85;;;1.77;;
32838;SDS011;19182;41.820;12.808;2023-03-01T10:13:50;3.17;;;2.20;;
32838;SDS011;19182;41.820;12.808;2023-03-01T10:16:41;3.30;;;2.20;;
32838;SDS011;19182;41.820;12.808;2023-03-01T10:19:17;3.15;;;2.13;;
32838;SDS011;19182;41.820;12.808;2023-03-01T10:21:49;7.57;;;2.15;;
32838;SDS011;19182;41.820;12.808;2023-03-01T10:24:19;4.10;;;1.73;;
32838;SDS011;19182;41.820;12.808;2023-03-01T10:33:04;2.30;;;1.58;;
32838;SDS011;19182;41.820;12.808;2023-03-01T10:35:40;3.80;;;2.10;;
32838;SDS011;19182;41.820;12.808;2023-03-01T10:38:10;2.58;;;1.60;;
32838;SDS011;19182;41.820;12.808;2023-03-01T10:43:48;2.05;;;1.85;;
32838;SDS011;19182;41.820;12.808;2023-03-01T10:49:21;3.53;;;1.15;;
32838;SDS011;19182;41.820;12.808;2023-03-01T10:51:52;1.17;;;1.00;;
32838;SDS011;19182;41.820;12.808;2023-03-01T10:56:55;1.17;;;0.90;;
32838;SDS011;19182;41.820;12.808;2023-03-01T10:59:31;2.25;;;0.93;;
32838;SDS011;19182;41.820;12.808;2023-03-01T11:07:47;1.17;;;0.80;;
32838;SDS011;19182;41.820;12.808;2023-03-01T11:10:18;1.90;;;1.13;;
32838;SDS011;19182;41.820;12.808;2023-03-01T11:12:46;1.42;;;0.95;;
32838;SDS011;19182;41.820;12.808;2023-03-01T11:15:23;2.30;;;0.70;;
32838;SDS011;19182;41.820;12.808;2023-03-01T11:17:53;0.50;;;0.50;;
32838;SDS011;19182;41.820;12.808;2023-03-01T11:23:01;1.77;;;0.60;;
32838;SDS011;19182;41.820;12.808;2023-03-01T11:25:33;2.33;;;0.90;;
32838;SDS011;19182;41.820;12.808;2023-03-01T11:28:02;1.33;;;1.20;;
32838;SDS011;19182;41.820;12.808;2023-03-01T11:30:32;1.00;;;0.50;;
32838;SDS011;19182;41.820;12.808;2023-03-01T11:36:43;0.73;;;0.68;;
32838;SDS011;19182;41.820;12.808;2023-03-01T11:39:28;1.23;;;0.70;;
32838;SDS011;19182;41.820;12.808;2023-03-01T11:44:39;1.25;;;0.90;;
32838;SDS011;19182;41.820;12.808;2023-03-01T11:50:34;2.67;;;0.70;;
32838;SDS011;19182;41.820;12.808;2023-03-01T11:53:31;1.33;;;0.85;;
32838;SDS011;19182;41.820;12.808;2023-03-01T11:56:18;1.25;;;0.50;;
32838;SDS011;19182;41.820;12.808;2023-03-01T11:59:02;0.82;;;0.50;;
32838;SDS011;19182;41.820;12.808;2023-03-01T12:13:52;1.55;;;0.60;;
32838;SDS011;19182;41.820;12.808;2023-03-01T12:19:44;1.42;;;0.80;;
32838;SDS011;19182;41.820;12.808;2023-03-01T12:42:29;1.13;;;0.85;;
32838;SDS011;19182;41.820;12.808;2023-03-01T12:53:17;1.92;;;0.68;;
32838;SDS011;19182;41.820;12.808;2023-03-01T12:55:55;1.38;;;0.80;;
32838;SDS011;19182;41.820;12.808;2023-03-01T12:58:45;1.65;;;1.10;;
32838;SDS011;19182;41.820;12.808;2023-03-01T13:07:24;1.50;;;1.05;;
32838;SDS011;19182;41.820;12.808;2023-03-01T13:09:59;1.60;;;0.93;;
32838;SDS011;19182;41.820;12.808;2023-03-01T13:12:50;3.30;;;1.20;;
32838;SDS011;19182;41.820;12.808;2023-03-01T13:17:52;3.30;;;1.20;;
32838;SDS011;19182;41.820;12.808;2023-03-01T13:20:34;3.17;;;1.25;;
32838;SDS011;19182;41.820;12.808;2023-03-01T13:34:00;2.47;;;1.15;;
32838;SDS011;19182;41.820;12.808;2023-03-01T13:39:04;2.78;;;0.95;;
32838;SDS011;19182;41.820;12.808;2023-03-01T13:41:52;1.55;;;1.10;;
32838;SDS011;19182;41.820;12.808;2023-03-01T13:46:48;2.25;;;1.00;;
32838;SDS011;19182;41.820;12.808;2023-03-01T13:49:29;2.47;;;1.23;;
32838;SDS011;19182;41.820;12.808;2023-03-01T13:54:49;3.05;;;1.15;;
32838;SDS011;19182;41.820;12.808;2023-03-01T13:57:18;2.25;;;1.40;;
32838;SDS011;19182;41.820;12.808;2023-03-01T13:59:48;2.78;;;1.65;;
32838;SDS011;19182;41.820;12.808;2023-03-01T14:02:17;2.15;;;1.50;;
32838;SDS011;19182;41.820;12.808;2023-03-01T14:04:42;4.68;;;1.77;;
32838;SDS011;19182;41.820;12.808;2023-03-01T14:07:18;4.13;;;1.60;;
32838;SDS011;19182;41.820;12.808;2023-03-01T14:09:47;4.90;;;1.73;;
32838;SDS011;19182;41.820;12.808;2023-03-01T14:15:33;3.97;;;2.15;;
32838;SDS011;19182;41.820;12.808;2023-03-01T14:20:38;1.73;;;1.60;;
32838;SDS011;19182;41.820;12.808;2023-03-01T14:23:12;3.17;;;1.50;;
32838;SDS011;19182;41.820;12.808;2023-03-01T14:25:50;5.25;;;1.92;;
32838;SDS011;19182;41.820;12.808;2023-03-01T14:28:21;4.53;;;1.80;;
32838;SDS011;19182;41.820;12.808;2023-03-01T14:30:53;3.22;;;1.17;;
32838;SDS011;19182;41.820;12.808;2023-03-01T14:33:22;4.82;;;1.42;;
32838;SDS011;19182;41.820;12.808;2023-03-01T14:41:07;5.18;;;1.63;;
32838;SDS011;19182;41.820;12.808;2023-03-01T14:46:23;2.42;;;1.52;;
32838;SDS011;19182;41.820;12.808;2023-03-01T14:49:17;5.32;;;2.17;;
32838;SDS011;19182;41.820;12.808;2023-03-01T14:51:52;4.63;;;2.33;;
32838;SDS011;19182;41.820;12.808;2023-03-01T14:54:26;3.78;;;1.70;;
32838;SDS011;19182;41.820;12.808;2023-03-01T14:56:59;3.75;;;1.73;;
32838;SDS011;19182;41.820;12.808;2023-03-01T14:59:26;3.53;;;1.70;;
32838;SDS011;19182;41.820;12.808;2023-03-01T15:01:53;1.65;;;1.35;;
32838;SDS011;19182;41.820;12.808;2023-03-01T15:04:22;2.03;;;1.70;;
32838;SDS011;19182;41.820;12.808;2023-03-01T15:06:55;6.70;;;1.80;;
32838;SDS011;19182;41.820;12.808;2023-03-01T15:09:29;3.70;;;1.88;;
32838;SDS011;19182;41.820;12.808;2023-03-01T15:11:57;6.05;;;2.38;;
32838;SDS011;19182;41.820;12.808;2023-03-01T15:14:27;3.92;;;2.35;;
32838;SDS011;19182;41.820;12.808;2023-03-01T15:17:24;3.42;;;1.50;;
32838;SDS011;19182;41.820;12.808;2023-03-01T15:19:56;2.58;;;1.65;;
32838;SDS011;19182;41.820;12.808;2023-03-01T15:22:22;5.95;;;1.73;;
32838;SDS011;19182;41.820;12.808;2023-03-01T15:24:50;3.50;;;1.98;;
32838;SDS011;19182;41.820;12.808;2023-03-01T15:27:19;3.85;;;1.85;;
32838;SDS011;19182;41.820;12.808;2023-03-01T15:29:51;3.70;;;2.38;;
32838;SDS011;19182;41.820;12.808;2023-03-01T15:32:30;2.55;;;2.00;;
32838;SDS011;19182;41.820;12.808;2023-03-01T15:34:58;7.50;;;2.60;;
32838;SDS011;19182;41.820;12.808;2023-03-01T15:37:45;3.85;;;2.20;;
32838;SDS011;19182;41.820;12.808;2023-03-01T15:40:21;2.78;;;2.20;;
32838;SDS011;19182;41.820;12.808;2023-03-01T15:42:56;5.57;;;2.20;;
32838;SDS011;19182;41.820;12.808;2023-03-01T15:45:26;3.47;;;2.30;;
32838;SDS011;19182;41.820;12.808;2023-03-01T15:47:57;4.03;;;2.03;;
32838;SDS011;19182;41.820;12.808;2023-03-01T15:52:58;2.63;;;1.33;;
32838;SDS011;19182;41.820;12.808;2023-03-01T15:55:26;3.58;;;1.42;;
32838;SDS011;19182;41.820;12.808;2023-03-01T15:58:04;2.72;;;1.70;;
32838;SDS011;19182;41.820;12.808;2023-03-01T16:00:35;5.35;;;1.77;;
32838;SDS011;19182;41.820;12.808;2023-03-01T16:03:00;3.70;;;1.88;;
32838;SDS011;19182;41.820;12.808;2023-03-01T16:05:31;3.75;;;2.13;;
32838;SDS011;19182;41.820;12.808;2023-03-01T16:07:58;4.38;;;2.42;;
32838;SDS011;19182;41.820;12.808;2023-03-01T16:10:27;4.72;;;2.78;;
32838;SDS011;19182;41.820;12.808;2023-03-01T16:12:54;8.10;;;2.28;;
32838;SDS011;19182;41.820;12.808;2023-03-01T16:15:20;3.75;;;2.30;;
32838;SDS011;19182;41.820;12.808;2023-03-01T16:17:48;6.47;;;2.92;;
32838;SDS011;19182;41.820;12.808;2023-03-01T16:20:14;7.47;;;3.08;;
32838;SDS011;19182;41.820;12.808;2023-03-01T16:22:41;4.70;;;3.03;;
32838;SDS011;19182;41.820;12.808;2023-03-01T16:25:09;4.78;;;2.50;;
32838;SDS011;19182;41.820;12.808;2023-03-01T16:27:36;7.97;;;2.97;;
32838;SDS011;19182;41.820;12.808;2023-03-01T16:30:02;4.05;;;2.70;;
32838;SDS011;19182;41.820;12.808;2023-03-01T16:32:29;4.22;;;1.83;;
32838;SDS011;19182;41.820;12.808;2023-03-01T16:34:55;3.45;;;2.38;;
32838;SDS011;19182;41.820;12.808;2023-03-01T16:37:20;3.63;;;2.55;;
32838;SDS011;19182;41.820;12.808;2023-03-01T16:39:47;4.88;;;2.58;;
32838;SDS011;19182;41.820;12.808;2023-03-01T16:42:15;4.85;;;3.25;;
32838;SDS011;19182;41.820;12.808;2023-03-01T16:44:44;7.82;;;3.20;;
32838;SDS011;19182;41.820;12.808;2023-03-01T16:47:10;6.82;;;3.92;;
32838;SDS011;19182;41.820;12.808;2023-03-01T16:49:36;5.72;;;3.63;;
32838;SDS011;19182;41.820;12.808;2023-03-01T16:52:01;5.30;;;3.42;;
32838;SDS011;19182;41.820;12.808;2023-03-01T16:54:27;7.82;;;3.65;;
32838;SDS011;19182;41.820;12.808;2023-03-01T16:56:53;9.27;;;3.88;;
32838;SDS011;19182;41.820;12.808;2023-03-01T16:59:19;10.90;;;5.05;;
32838;SDS011;19182;41.820;12.808;2023-03-01T17:01:44;14.05;;;5.60;;
32838;SDS011;19182;41.820;12.808;2023-03-01T17:04:11;12.40;;;4.50;;
32838;SDS011;19182;41.820;12.808;2023-03-01T17:06:38;6.30;;;3.88;;
32838;SDS011;19182;41.820;12.808;2023-03-01T17:09:03;5.15;;;3.85;;
32838;SDS011;19182;41.820;12.808;2023-03-01T17:11:29;9.13;;;4.10;;
32838;SDS011;19182;41.820;12.808;2023-03-01T17:13:55;6.63;;;4.10;;
32838;SDS011;19182;41.820;12.808;2023-03-01T17:16:21;8.98;;;3.67;;
32838;SDS011;19182;41.820;12.808;2023-03-01T17:18:47;5.72;;;3.42;;
32838;SDS011;19182;41.820;12.808;2023-03-01T17:21:13;4.60;;;3.67;;
32838;SDS011;19182;41.820;12.808;2023-03-01T17:23:40;13.07;;;6.93;;